Time;durP1;ratioP1;P1;durP2;ratioP2;P2;SDS_P1;SDS_P2;PMS_P1;PMS_P2;Temp;Humidity;BMP_temperature;BMP_pressure;BME280_temperature;BME280_humidity;BME280_pressure;Samples;Min_cycle;Max_cycle;Signal;HPM_P1;HPM_P2
2023/04/28 00:00:27;;;;;;;10.15;7.18;;;;;;;;;;5015301;28;20089;-74
2023/04/28 00:02:53;;;;;;;10.65;6.85;;;;;;;;;;4999628;28;20045;-74
2023/04/28 00:05:21;;;;;;;12.07;6.93;;;;;;;;;;4996436;28;20048;-74
2023/04/28 00:07:47;;;;;;;8.95;6.32;;;;;;;;;;5001363;28;20042;-74
2023/04/28 00:10:13;;;;;;;8.50;6.50;;;;;;;;;;5014526;28;20104;-74
2023/04/28 00:12:40;;;;;;;8.68;6.30;;;;;;;;;;5016155;28;20050;-74
2023/04/28 00:15:06;;;;;;;10.82;7.10;;;;;;;;;;5015198;28;20050;-74
2023/04/28 00:17:32;;;;;;;9.23;6.57;;;;;;;;;;5016183;28;20048;-74
2023/04/28 00:19:59;;;;;;;10.43;6.43;;;;;;;;;;5015631;28;20447;-74
2023/04/28 00:22:25;;;;;;;9.88;6.40;;;;;;;;;;5014779;28;20054;-74
2023/04/28 00:24:51;;;;;;;10.23;6.10;;;;;;;;;;5016103;28;20042;-74
2023/04/28 00:27:17;;;;;;;10.18;6.50;;;;;;;;;;5016279;28;20080;-74
2023/04/28 00:29:43;;;;;;;9.80;6.40;;;;;;;;;;5013133;28;20053;-74
2023/04/28 00:32:09;;;;;;;9.75;5.90;;;;;;;;;;5015287;28;20380;-74
2023/04/28 00:34:36;;;;;;;9.90;6.13;;;;;;;;;;5015365;28;20057;-74
2023/04/28 00:37:03;;;;;;;9.82;6.43;;;;;;;;;;5014370;28;20496;-74
2023/04/28 00:39:29;;;;;;;11.95;6.22;;;;;;;;;;5014288;28;20049;-74
2023/04/28 00:41:55;;;;;;;11.25;7.28;;;;;;;;;;5015453;28;20057;-74
2023/04/28 00:44:21;;;;;;;9.43;6.75;;;;;;;;;;5012799;28;20045;-74
2023/04/28 00:46:47;;;;;;;8.82;6.45;;;;;;;;;;5015399;28;20050;-74
2023/04/28 00:49:15;;;;;;;9.10;6.00;;;;;;;;;;5014349;28;20053;-74
2023/04/28 00:51:41;;;;;;;9.77;6.55;;;;;;;;;;5014777;28;20409;-74
2023/04/28 00:54:07;;;;;;;9.70;6.45;;;;;;;;;;5014705;28;20143;-74
2023/04/28 00:56:33;;;;;;;10.02;6.28;;;;;;;;;;5014763;28;20149;-74
2023/04/28 00:58:59;;;;;;;9.93;6.40;;;;;;;;;;5014379;28;20116;-73
2023/04/28 01:01:25;;;;;;;10.68;6.53;;;;;;;;;;5013907;28;20049;-74
2023/04/28 01:03:52;;;;;;;10.05;5.97;;;;;;;;;;5015514;28;20042;-74
2023/04/28 01:06:18;;;;;;;9.52;6.40;;;;;;;;;;5004559;28;20086;-75
2023/04/28 01:08:47;;;;;;;9.80;6.18;;;;;;;;;;4995702;28;20043;-74
2023/04/28 01:11:13;;;;;;;9.00;6.20;;;;;;;;;;4995495;28;20042;-74
2023/04/28 01:13:39;;;;;;;10.63;6.70;;;;;;;;;;5003136;28;20042;-74
2023/04/28 01:16:09;;;;;;;8.65;6.10;;;;;;;;;;5013989;28;20046;-74
2023/04/28 01:18:36;;;;;;;7.65;5.88;;;;;;;;;;5013928;28;20046;-74
2023/04/28 01:21:03;;;;;;;8.85;6.20;;;;;;;;;;5014843;28;20401;-74
2023/04/28 01:23:29;;;;;;;9.55;6.10;;;;;;;;;;5014855;28;20046;-74
2023/04/28 01:25:57;;;;;;;8.73;5.72;;;;;;;;;;5014911;28;20408;-74
2023/04/28 01:28:23;;;;;;;10.05;6.10;;;;;;;;;;5013043;28;20396;-74
2023/04/28 01:30:49;;;;;;;8.82;6.00;;;;;;;;;;5013857;28;20515;-74
2023/04/28 01:33:15;;;;;;;8.93;5.70;;;;;;;;;;5014698;28;20076;-74
2023/04/28 01:35:41;;;;;;;8.45;5.78;;;;;;;;;;5012560;28;20045;-74
2023/04/28 01:38:07;;;;;;;10.00;6.03;;;;;;;;;;5014389;28;20068;-74
2023/04/28 01:40:33;;;;;;;8.73;6.10;;;;;;;;;;5014378;28;20049;-74
2023/04/28 01:42:59;;;;;;;8.02;5.55;;;;;;;;;;5014506;28;20115;-73
2023/04/28 01:45:25;;;;;;;11.90;6.53;;;;;;;;;;5012802;28;20053;-74
2023/04/28 01:47:51;;;;;;;9.80;6.70;;;;;;;;;;5014135;28;20038;-73
2023/04/28 01:50:17;;;;;;;10.25;6.57;;;;;;;;;;5013999;28;20046;-74
2023/04/28 01:52:43;;;;;;;9.95;7.05;;;;;;;;;;5014442;28;20045;-74
2023/04/28 01:55:10;;;;;;;9.32;6.28;;;;;;;;;;5013988;28;20042;-74
2023/04/28 01:57:36;;;;;;;8.35;6.10;;;;;;;;;;5013933;28;20050;-74
2023/04/28 02:00:03;;;;;;;8.90;6.18;;;;;;;;;;5012970;28;20052;-74
2023/04/28 02:02:29;;;;;;;10.27;6.80;;;;;;;;;;5013288;28;20071;-74
2023/04/28 02:04:56;;;;;;;11.60;6.75;;;;;;;;;;5014270;28;20053;-74
2023/04/28 02:07:23;;;;;;;12.50;6.72;;;;;;;;;;5014180;28;20468;-74
2023/04/28 02:09:49;;;;;;;9.30;6.25;;;;;;;;;;5013752;28;20400;-74
2023/04/28 02:12:16;;;;;;;10.75;6.40;;;;;;;;;;5013812;28;20122;-74
2023/04/28 02:14:42;;;;;;;9.90;6.32;;;;;;;;;;5013657;28;20089;-74
2023/04/28 02:17:08;;;;;;;10.73;6.55;;;;;;;;;;4999513;28;20046;-74
2023/04/28 02:19:34;;;;;;;10.98;6.60;;;;;;;;;;5014127;28;20042;-74
2023/04/28 02:22:00;;;;;;;10.45;6.55;;;;;;;;;;5013154;28;20046;-74
2023/04/28 02:24:26;;;;;;;10.57;7.25;;;;;;;;;;5014143;28;20108;-74
2023/04/28 02:26:52;;;;;;;12.57;6.85;;;;;;;;;;5015649;28;20042;-74
2023/04/28 02:29:18;;;;;;;11.95;7.38;;;;;;;;;;5016775;28;20109;-73
2023/04/28 02:31:45;;;;;;;12.20;7.10;;;;;;;;;;5013959;28;20046;-73
2023/04/28 02:34:11;;;;;;;9.38;6.40;;;;;;;;;;5013966;28;20046;-73
2023/04/28 02:36:38;;;;;;;11.75;6.93;;;;;;;;;;5014775;28;20046;-73
2023/04/28 02:39:04;;;;;;;15.40;7.45;;;;;;;;;;5013922;28;20049;-73
2023/04/28 02:41:31;;;;;;;11.57;6.88;;;;;;;;;;5013670;28;20049;-73
2023/04/28 02:43:57;;;;;;;12.23;7.20;;;;;;;;;;5013423;28;20038;-74
2023/04/28 02:46:23;;;;;;;11.52;6.68;;;;;;;;;;5013256;28;20117;-74
2023/04/28 02:48:49;;;;;;;12.23;7.32;;;;;;;;;;5013696;28;20170;-74
2023/04/28 02:51:15;;;;;;;11.65;6.90;;;;;;;;;;5013546;28;20054;-74
2023/04/28 02:53:41;;;;;;;11.15;6.72;;;;;;;;;;5013673;28;20507;-74
2023/04/28 02:56:07;;;;;;;12.00;7.75;;;;;;;;;;5012648;28;20058;-74
2023/04/28 02:58:33;;;;;;;10.52;6.93;;;;;;;;;;5013356;28;20045;-74
2023/04/28 03:00:59;;;;;;;11.30;7.20;;;;;;;;;;5013601;28;20049;-74
2023/04/28 03:03:26;;;;;;;13.93;7.60;;;;;;;;;;5017357;28;20049;-74
2023/04/28 03:05:52;;;;;;;11.68;7.05;;;;;;;;;;5016708;28;20475;-74
2023/04/28 03:08:19;;;;;;;13.00;7.65;;;;;;;;;;4999950;28;20049;-74
2023/04/28 03:10:45;;;;;;;11.52;7.07;;;;;;;;;;5010781;28;20050;-74
2023/04/28 03:13:11;;;;;;;12.93;7.90;;;;;;;;;;4997677;28;20552;-73
2023/04/28 03:15:37;;;;;;;11.38;7.50;;;;;;;;;;5003499;28;20480;-74
2023/04/28 03:18:03;;;;;;;12.80;7.38;;;;;;;;;;5015364;28;20052;-74
2023/04/28 03:20:30;;;;;;;12.15;7.95;;;;;;;;;;5015812;28;20084;-73
2023/04/28 03:22:56;;;;;;;17.35;8.40;;;;;;;;;;5014894;28;20046;-74
2023/04/28 03:25:22;;;;;;;12.50;8.10;;;;;;;;;;5015469;28;20042;-74
2023/04/28 03:27:48;;;;;;;12.13;7.93;;;;;;;;;;5012313;28;20061;-74
2023/04/28 03:30:14;;;;;;;16.27;8.90;;;;;;;;;;5000815;28;20100;-74
2023/04/28 03:32:40;;;;;;;13.52;8.77;;;;;;;;;;5015520;28;20045;-74
2023/04/28 03:35:06;;;;;;;16.50;9.00;;;;;;;;;;5017195;28;20050;-74
2023/04/28 03:37:32;;;;;;;13.32;8.80;;;;;;;;;;4991771;28;20070;-74
2023/04/28 03:39:58;;;;;;;13.68;8.65;;;;;;;;;;5011037;28;20042;-73
2023/04/28 03:42:24;;;;;;;12.52;8.07;;;;;;;;;;4995565;28;20101;-74
2023/04/28 03:44:50;;;;;;;15.02;8.18;;;;;;;;;;4996994;28;20053;-74
2023/04/28 03:47:16;;;;;;;13.20;9.07;;;;;;;;;;5014023;28;20053;-75
2023/04/28 03:49:43;;;;;;;15.07;9.52;;;;;;;;;;5014914;28;20522;-75
2023/04/28 03:52:09;;;;;;;15.05;8.98;;;;;;;;;;5016817;28;20046;-74
2023/04/28 03:54:35;;;;;;;14.63;9.60;;;;;;;;;;5016542;28;20391;-74
2023/04/28 03:57:01;;;;;;;20.80;9.55;;;;;;;;;;5015481;28;20127;-75
2023/04/28 03:59:27;;;;;;;16.20;9.35;;;;;;;;;;5011531;28;20046;-75
2023/04/28 04:01:53;;;;;;;16.08;9.88;;;;;;;;;;4999662;28;20123;-74
2023/04/28 04:04:19;;;;;;;17.52;10.15;;;;;;;;;;5015471;28;20326;-74
2023/04/28 04:06:45;;;;;;;18.00;10.20;;;;;;;;;;5016803;28;20056;-75
2023/04/28 04:09:11;;;;;;;16.30;10.35;;;;;;;;;;5015789;28;20076;-74
2023/04/28 04:11:37;;;;;;;16.60;10.27;;;;;;;;;;5013588;28;20042;-75
2023/04/28 04:14:05;;;;;;;15.63;10.80;;;;;;;;;;5016461;28;20041;-75
2023/04/28 04:16:31;;;;;;;18.70;10.15;;;;;;;;;;5015349;28;20420;-74
2023/04/28 04:18:57;;;;;;;18.55;10.80;;;;;;;;;;5014012;28;20049;-74
2023/04/28 04:21:23;;;;;;;18.98;10.30;;;;;;;;;;5014499;28;20041;-75
2023/04/28 04:23:49;;;;;;;15.65;10.40;;;;;;;;;;5015883;28;20459;-74
2023/04/28 04:26:15;;;;;;;18.10;10.80;;;;;;;;;;5014402;28;20141;-75
2023/04/28 04:28:41;;;;;;;15.20;9.63;;;;;;;;;;5014238;28;20054;-74
2023/04/28 04:31:07;;;;;;;20.30;10.70;;;;;;;;;;5014221;28;20069;-74
2023/04/28 04:33:33;;;;;;;19.45;10.30;;;;;;;;;;5013803;28;20061;-75
2023/04/28 04:35:59;;;;;;;18.65;11.32;;;;;;;;;;5015091;28;20384;-74
2023/04/28 04:38:25;;;;;;;20.88;11.10;;;;;;;;;;5014161;28;20053;-74
2023/04/28 04:40:52;;;;;;;19.27;11.10;;;;;;;;;;5015266;28;20045;-75
2023/04/28 04:43:18;;;;;;;19.17;10.80;;;;;;;;;;5014992;28;20053;-74
2023/04/28 04:45:44;;;;;;;19.27;11.00;;;;;;;;;;4994334;28;20035;-74
2023/04/28 04:48:11;;;;;;;20.17;11.68;;;;;;;;;;5009953;28;20049;-75
2023/04/28 04:50:37;;;;;;;20.77;10.93;;;;;;;;;;5013605;28;20050;-75
2023/04/28 04:53:03;;;;;;;18.05;10.32;;;;;;;;;;5015091;28;20052;-75
2023/04/28 04:55:29;;;;;;;18.25;10.65;;;;;;;;;;5013637;28;20066;-75
2023/04/28 04:57:56;;;;;;;20.00;10.88;;;;;;;;;;5014251;28;20285;-75
2023/04/28 05:00:22;;;;;;;19.55;10.70;;;;;;;;;;5014805;28;20471;-75
2023/04/28 05:02:48;;;;;;;17.95;10.32;;;;;;;;;;5014339;28;20452;-75
2023/04/28 05:05:14;;;;;;;18.85;11.13;;;;;;;;;;5012838;28;20068;-74
2023/04/28 05:07:40;;;;;;;19.65;10.45;;;;;;;;;;5013554;28;20076;-75
2023/04/28 05:10:06;;;;;;;17.45;10.85;;;;;;;;;;5014677;28;20064;-75
2023/04/28 05:12:32;;;;;;;21.65;11.25;;;;;;;;;;5013466;28;20069;-75
2023/04/28 05:14:58;;;;;;;20.17;10.43;;;;;;;;;;5014404;28;20084;-74
2023/04/28 05:17:24;;;;;;;16.40;9.98;;;;;;;;;;5013038;28;20049;-75
2023/04/28 05:19:50;;;;;;;18.90;11.07;;;;;;;;;;4995331;28;20053;-75
2023/04/28 05:22:16;;;;;;;16.23;9.93;;;;;;;;;;4994132;28;20107;-74
2023/04/28 05:24:42;;;;;;;18.73;10.57;;;;;;;;;;5012247;28;20073;-75
2023/04/28 05:27:08;;;;;;;19.77;10.93;;;;;;;;;;5014073;28;20095;-75
2023/04/28 05:29:34;;;;;;;17.13;10.00;;;;;;;;;;5014755;28;20392;-75
2023/04/28 05:32:01;;;;;;;15.68;10.20;;;;;;;;;;5013363;28;20053;-75
2023/04/28 05:34:27;;;;;;;16.15;10.43;;;;;;;;;;5013386;28;20065;-75
2023/04/28 05:36:53;;;;;;;18.77;10.05;;;;;;;;;;5015636;28;20105;-75
2023/04/28 05:39:19;;;;;;;17.00;9.65;;;;;;;;;;5018394;28;20100;-75
2023/04/28 05:41:45;;;;;;;17.10;9.88;;;;;;;;;;5016545;28;20057;-75
2023/04/28 05:44:11;;;;;;;16.23;9.80;;;;;;;;;;5012137;28;20042;-75
2023/04/28 05:46:37;;;;;;;18.17;10.80;;;;;;;;;;5014976;28;20046;-75
2023/04/28 05:49:03;;;;;;;15.60;9.98;;;;;;;;;;5014465;28;20042;-74
2023/04/28 05:51:29;;;;;;;19.67;10.18;;;;;;;;;;5012871;28;20042;-75
2023/04/28 05:53:55;;;;;;;16.90;10.43;;;;;;;;;;5005509;28;20101;-75
2023/04/28 05:56:21;;;;;;;15.70;9.38;;;;;;;;;;5009584;28;20106;-75
2023/04/28 05:58:49;;;;;;;17.90;10.13;;;;;;;;;;5014409;28;20056;-75
2023/04/28 06:01:15;;;;;;;17.70;8.98;;;;;;;;;;5011650;28;20054;-75
2023/04/28 06:03:41;;;;;;;15.05;9.68;;;;;;;;;;4996426;28;20045;-75
2023/04/28 06:06:08;;;;;;;15.82;9.80;;;;;;;;;;5014515;28;20042;-75
2023/04/28 06:08:34;;;;;;;19.25;10.10;;;;;;;;;;5012305;28;20082;-75
2023/04/28 06:11:00;;;;;;;18.27;10.45;;;;;;;;;;5014183;28;20062;-75
2023/04/28 06:13:26;;;;;;;19.05;9.77;;;;;;;;;;5012051;28;20599;-75
2023/04/28 06:15:53;;;;;;;15.30;9.65;;;;;;;;;;5014352;28;20072;-76
2023/04/28 06:18:19;;;;;;;15.55;9.52;;;;;;;;;;5008977;28;20053;-75
2023/04/28 06:20:45;;;;;;;14.90;8.82;;;;;;;;;;5011900;28;20045;-75
2023/04/28 06:23:11;;;;;;;15.98;9.77;;;;;;;;;;4995784;28;20093;-75
2023/04/28 06:25:37;;;;;;;16.27;9.63;;;;;;;;;;5014012;28;20068;-75
2023/04/28 06:28:03;;;;;;;14.63;9.57;;;;;;;;;;5013008;28;20049;-75
2023/04/28 06:30:30;;;;;;;15.07;9.35;;;;;;;;;;5013373;28;20042;-75
2023/04/28 06:32:56;;;;;;;15.38;9.77;;;;;;;;;;5014014;28;20050;-75
2023/04/28 06:35:22;;;;;;;15.95;10.20;;;;;;;;;;5016111;28;20089;-75
2023/04/28 06:37:49;;;;;;;13.88;8.98;;;;;;;;;;5016638;28;20459;-75
2023/04/28 06:40:15;;;;;;;15.75;9.60;;;;;;;;;;5017341;28;20056;-75
2023/04/28 06:42:41;;;;;;;14.50;9.93;;;;;;;;;;4999961;28;20365;-75
2023/04/28 06:45:07;;;;;;;16.48;10.13;;;;;;;;;;4997606;28;20053;-75
2023/04/28 06:47:33;;;;;;;14.70;9.90;;;;;;;;;;5016398;28;20041;-75
2023/04/28 06:50:00;;;;;;;14.80;9.18;;;;;;;;;;5015710;28;20372;-75
2023/04/28 06:52:28;;;;;;;15.20;9.15;;;;;;;;;;5014325;28;20504;-75
2023/04/28 06:54:54;;;;;;;14.52;8.80;;;;;;;;;;5016341;28;20048;-75
2023/04/28 06:57:20;;;;;;;13.73;9.02;;;;;;;;;;5016457;28;20444;-75
2023/04/28 06:59:47;;;;;;;15.50;9.40;;;;;;;;;;5012489;28;20046;-75
2023/04/28 07:02:13;;;;;;;13.95;8.75;;;;;;;;;;4984294;28;20073;-75
2023/04/28 07:04:39;;;;;;;13.23;9.00;;;;;;;;;;5029943;28;20096;-75
2023/04/28 07:07:07;;;;;;;15.27;9.48;;;;;;;;;;5009016;28;20148;-75
2023/04/28 07:09:36;;;;;;;13.48;9.07;;;;;;;;;;4997395;28;20047;-75
2023/04/28 07:12:05;;;;;;;13.57;8.95;;;;;;;;;;4996594;28;20481;-75
2023/04/28 07:14:32;;;;;;;12.88;9.02;;;;;;;;;;5005063;28;20048;-75
2023/04/28 07:16:58;;;;;;;14.98;9.50;;;;;;;;;;5014599;28;20046;-75
2023/04/28 07:19:24;;;;;;;16.20;9.60;;;;;;;;;;5014249;28;20042;-75
2023/04/28 07:21:50;;;;;;;15.02;9.30;;;;;;;;;;5015843;28;20057;-75
2023/04/28 07:24:16;;;;;;;15.52;9.85;;;;;;;;;;5016215;28;20048;-75
2023/04/28 07:26:42;;;;;;;13.18;9.15;;;;;;;;;;5015710;28;20044;-75
2023/04/28 07:29:09;;;;;;;15.77;10.38;;;;;;;;;;5015634;28;20495;-75
2023/04/28 07:31:35;;;;;;;14.77;9.32;;;;;;;;;;5014711;28;20348;-75
2023/04/28 07:34:01;;;;;;;15.38;9.02;;;;;;;;;;5016779;28;20049;-75
2023/04/28 07:36:27;;;;;;;15.80;8.57;;;;;;;;;;5016745;28;20042;-76
2023/04/28 07:38:53;;;;;;;13.52;8.48;;;;;;;;;;5017081;28;20041;-75
2023/04/28 07:41:19;;;;;;;13.60;9.27;;;;;;;;;;5014337;28;20369;-75
2023/04/28 07:43:45;;;;;;;13.10;8.27;;;;;;;;;;5015511;28;20361;-75
2023/04/28 07:46:11;;;;;;;14.23;9.63;;;;;;;;;;5005902;28;20041;-75
2023/04/28 07:48:37;;;;;;;14.05;9.10;;;;;;;;;;5015170;28;20512;-76
2023/04/28 07:51:04;;;;;;;14.20;9.30;;;;;;;;;;4993006;28;20497;-75
2023/04/28 07:53:30;;;;;;;13.43;8.57;;;;;;;;;;5011892;28;20057;-76
2023/04/28 07:55:56;;;;;;;16.10;9.55;;;;;;;;;;4994901;28;20061;-75
2023/04/28 07:58:22;;;;;;;14.60;9.05;;;;;;;;;;5016149;28;20108;-75
2023/04/28 08:00:48;;;;;;;14.65;9.52;;;;;;;;;;5015421;28;20041;-76
2023/04/28 08:03:14;;;;;;;13.40;9.35;;;;;;;;;;5010570;28;20041;-75
2023/04/28 08:05:41;;;;;;;14.07;9.75;;;;;;;;;;5008817;28;20060;-75
2023/04/28 08:08:07;;;;;;;13.30;9.10;;;;;;;;;;5014354;28;20149;-75
2023/04/28 08:10:33;;;;;;;14.40;9.13;;;;;;;;;;5015522;28;20050;-75
2023/04/28 08:12:59;;;;;;;14.57;9.65;;;;;;;;;;5015137;28;20400;-75
2023/04/28 08:15:26;;;;;;;15.05;10.32;;;;;;;;;;5004949;28;20436;-75
2023/04/28 08:17:52;;;;;;;15.45;9.35;;;;;;;;;;5002556;28;20060;-75
2023/04/28 08:20:18;;;;;;;14.95;9.45;;;;;;;;;;4998134;28;20050;-75
2023/04/28 08:22:45;;;;;;;12.25;8.95;;;;;;;;;;5010877;28;20046;-75
2023/04/28 08:25:11;;;;;;;12.63;9.20;;;;;;;;;;5004301;28;20050;-75
2023/04/28 08:27:38;;;;;;;16.05;9.43;;;;;;;;;;5009844;28;20046;-75
2023/04/28 08:30:06;;;;;;;15.40;9.40;;;;;;;;;;5012537;28;20400;-75
2023/04/28 08:32:32;;;;;;;16.02;9.70;;;;;;;;;;5010696;28;20049;-75
2023/04/28 08:34:59;;;;;;;14.88;10.07;;;;;;;;;;5021491;28;20037;-75
2023/04/28 08:37:26;;;;;;;14.80;10.23;;;;;;;;;;5016603;28;20088;-75
2023/04/28 08:40:00;;;;;;;22.73;10.23;;;;;;;;;;5002230;28;20042;-75
2023/04/28 08:42:29;;;;;;;15.00;10.15;;;;;;;;;;5004031;28;20054;-75
2023/04/28 08:44:59;;;;;;;14.55;10.15;;;;;;;;;;5004328;28;20554;-75
2023/04/28 08:47:46;;;;;;;14.93;9.35;;;;;;;;;;5015736;28;20052;-75
2023/04/28 08:50:13;;;;;;;15.23;10.48;;;;;;;;;;5007376;28;20049;-76
2023/04/28 08:52:40;;;;;;;15.27;10.35;;;;;;;;;;5017604;28;20053;-75
2023/04/28 08:55:08;;;;;;;14.98;10.35;;;;;;;;;;5017392;28;20150;-75
2023/04/28 08:57:44;;;;;;;11.57;9.05;;;;;;;;;;5013719;28;20045;-75
2023/04/28 09:00:11;;;;;;;15.05;10.20;;;;;;;;;;5011477;28;20435;-75
2023/04/28 09:02:40;;;;;;;14.85;10.65;;;;;;;;;;5012355;28;20046;-75
2023/04/28 09:05:07;;;;;;;13.00;9.25;;;;;;;;;;5012657;28;20125;-75
2023/04/28 09:07:33;;;;;;;14.60;8.85;;;;;;;;;;5012986;28;20054;-75
2023/04/28 09:10:14;;;;;;;13.45;9.00;;;;;;;;;;4995381;28;20033;-76
2023/04/28 09:12:40;;;;;;;16.08;11.20;;;;;;;;;;5007843;28;20495;-76
2023/04/28 09:15:08;;;;;;;12.32;9.65;;;;;;;;;;4981983;28;20800;-76
2023/04/28 09:17:47;;;;;;;14.38;9.95;;;;;;;;;;5011571;28;20056;-75
2023/04/28 09:20:24;;;;;;;14.95;10.80;;;;;;;;;;5091122;28;21167;-74
2023/04/28 09:22:51;;;;;;;15.02;9.43;;;;;;;;;;5077813;28;20048;-74
2023/04/28 09:25:17;;;;;;;18.23;9.98;;;;;;;;;;5073261;28;20037;-74
2023/04/28 09:27:43;;;;;;;14.20;9.82;;;;;;;;;;5071199;28;20456;-76
2023/04/28 09:30:10;;;;;;;13.88;9.23;;;;;;;;;;5060295;28;20121;-74
2023/04/28 09:32:36;;;;;;;15.40;10.02;;;;;;;;;;5066708;28;20063;-77
2023/04/28 09:35:03;;;;;;;16.13;10.38;;;;;;;;;;5069586;28;20076;-74
2023/04/28 09:37:30;;;;;;;15.80;10.05;;;;;;;;;;5070721;28;20041;-74
2023/04/28 09:39:57;;;;;;;15.63;9.88;;;;;;;;;;5069990;28;20119;-75
2023/04/28 09:42:42;;;;;;;15.00;10.27;;;;;;;;;;5064751;28;20052;-74
2023/04/28 09:45:09;;;;;;;15.32;10.48;;;;;;;;;;5067196;28;20128;-75
2023/04/28 09:47:46;;;;;;;14.38;10.18;;;;;;;;;;5058846;28;20053;-74
2023/04/28 09:50:13;;;;;;;13.15;9.43;;;;;;;;;;5070611;28;20049;-74
2023/04/28 09:52:41;;;;;;;18.83;11.00;;;;;;;;;;5068125;28;20072;-74
2023/04/28 09:55:07;;;;;;;15.35;9.88;;;;;;;;;;5061760;28;20064;-74
2023/04/28 09:57:34;;;;;;;14.52;11.07;;;;;;;;;;5062704;28;20048;-74
2023/04/28 10:00:01;;;;;;;15.60;11.18;;;;;;;;;;5063918;28;20033;-74
2023/04/28 10:02:27;;;;;;;17.15;10.25;;;;;;;;;;5055170;28;20041;-75
2023/04/28 10:04:53;;;;;;;15.98;10.63;;;;;;;;;;5053800;28;20060;-75
2023/04/28 10:07:20;;;;;;;16.75;10.27;;;;;;;;;;5064100;28;20110;-75
2023/04/28 10:09:49;;;;;;;19.17;10.20;;;;;;;;;;5055410;28;20087;-74
2023/04/28 10:12:15;;;;;;;15.90;11.02;;;;;;;;;;5057362;28;20052;-75
2023/04/28 10:14:41;;;;;;;15.93;10.48;;;;;;;;;;5064338;28;20076;-75
2023/04/28 10:17:08;;;;;;;15.85;10.63;;;;;;;;;;5068625;28;20045;-75
2023/04/28 10:19:34;;;;;;;16.42;11.25;;;;;;;;;;5068328;28;20063;-75
2023/04/28 10:22:14;;;;;;;18.05;11.10;;;;;;;;;;5060403;28;20053;-75
2023/04/28 10:24:53;;;;;;;15.13;10.85;;;;;;;;;;5057932;28;20051;-74
2023/04/28 10:27:19;;;;;;;14.07;10.25;;;;;;;;;;5057363;28;20525;-74
2023/04/28 10:29:45;;;;;;;14.63;10.77;;;;;;;;;;5050062;28;20046;-74
2023/04/28 10:32:18;;;;;;;15.85;11.00;;;;;;;;;;5040833;28;20050;-74
2023/04/28 10:34:44;;;;;;;17.83;11.38;;;;;;;;;;5039588;28;20059;-74
2023/04/28 10:37:10;;;;;;;17.13;11.75;;;;;;;;;;5035491;28;20392;-74
2023/04/28 10:39:37;;;;;;;17.80;12.90;;;;;;;;;;5039792;28;20042;-74
2023/04/28 10:42:03;;;;;;;17.30;12.15;;;;;;;;;;5041557;28;20069;-74
2023/04/28 10:44:29;;;;;;;19.52;13.32;;;;;;;;;;5025783;28;20041;-72
2023/04/28 10:47:05;;;;;;;18.02;13.00;;;;;;;;;;5042027;28;20075;-72
2023/04/28 10:49:31;;;;;;;;;;;;;;;;;;5039910;28;20456;-72
2023/04/28 10:51:57;;;;;;;18.92;12.70;;;;;;;;;;5037340;28;19929;-73
2023/04/28 10:54:24;;;;;;;18.77;12.82;;;;;;;;;;5049615;28;20616;-73
2023/04/28 10:57:09;;;;;;;16.85;12.10;;;;;;;;;;5044896;28;20057;-73
2023/04/28 10:59:35;;;;;;;18.15;13.52;;;;;;;;;;5037379;28;20077;-72
2023/04/28 11:02:21;;;;;;;17.83;12.65;;;;;;;;;;5047428;28;20052;-72
2023/04/28 11:05:11;;;;;;;17.23;12.52;;;;;;;;;;5040662;28;20483;-73
2023/04/28 11:07:37;;;;;;;18.20;13.27;;;;;;;;;;5037481;28;20128;-74
2023/04/28 11:10:03;;;;;;;22.17;12.55;;;;;;;;;;5048805;28;20131;-75
2023/04/28 11:12:29;;;;;;;21.58;13.45;;;;;;;;;;5056025;28;20371;-75
2023/04/28 11:14:55;;;;;;;22.35;13.77;;;;;;;;;;5055235;28;20582;-73
2023/04/28 11:17:35;;;;;;;20.00;14.30;;;;;;;;;;5054577;28;20120;-72
2023/04/28 11:20:03;;;;;;;20.35;13.52;;;;;;;;;;5051500;28;20041;-72
2023/04/28 11:22:30;;;;;;;21.15;13.93;;;;;;;;;;5046812;28;20495;-71
2023/04/28 11:24:57;;;;;;;19.52;13.70;;;;;;;;;;5053832;28;20083;-71
2023/04/28 11:27:24;;;;;;;20.20;13.13;;;;;;;;;;5042447;28;20045;-72
2023/04/28 11:29:50;;;;;;;19.75;14.13;;;;;;;;;;5043967;28;20384;-71
2023/04/28 11:32:16;;;;;;;21.23;14.88;;;;;;;;;;5054663;28;20049;-71
2023/04/28 11:34:42;;;;;;;20.33;13.75;;;;;;;;;;5048833;28;20051;-71
2023/04/28 11:37:08;;;;;;;19.23;13.18;;;;;;;;;;5054740;28;20041;-72
2023/04/28 11:39:34;;;;;;;19.13;14.15;;;;;;;;;;5052928;28;20498;-72
2023/04/28 11:42:09;;;;;;;21.17;14.50;;;;;;;;;;5040306;28;20498;-71
2023/04/28 11:44:35;;;;;;;19.52;14.70;;;;;;;;;;5053778;28;20032;-72
2023/04/28 11:47:02;;;;;;;21.58;14.15;;;;;;;;;;5047109;28;20095;-72
2023/04/28 11:49:29;;;;;;;23.58;14.82;;;;;;;;;;5053891;28;20941;-71
2023/04/28 11:52:03;;;;;;;20.02;14.25;;;;;;;;;;5054628;28;20037;-71
2023/04/28 11:54:29;;;;;;;23.00;15.13;;;;;;;;;;5052935;28;20479;-71
2023/04/28 11:56:56;;;;;;;20.23;14.93;;;;;;;;;;5054301;28;20531;-71
2023/04/28 11:59:26;;;;;;;19.55;14.23;;;;;;;;;;5054898;28;20037;-71
2023/04/28 12:01:52;;;;;;;20.98;13.88;;;;;;;;;;5053675;28;20052;-72
2023/04/28 12:04:41;;;;;;;21.67;14.15;;;;;;;;;;5034851;28;20044;-71
2023/04/28 12:07:14;;;;;;;20.52;14.93;;;;;;;;;;5056199;28;20091;-72
2023/04/28 12:09:40;;;;;;;22.02;15.50;;;;;;;;;;5053145;28;20068;-72
2023/04/28 12:12:08;;;;;;;22.83;15.57;;;;;;;;;;5056116;28;20124;-71
2023/04/28 12:15:13;;;;;;;22.48;15.30;;;;;;;;;;5054366;28;20052;-71
2023/04/28 12:17:41;;;;;;;21.90;14.82;;;;;;;;;;5002715;28;20045;-71
2023/04/28 12:20:11;;;;;;;23.65;16.50;;;;;;;;;;5031082;28;20053;-71
2023/04/28 12:22:43;;;;;;;21.52;15.70;;;;;;;;;;5013844;28;20104;-71
2023/04/28 12:25:10;;;;;;;23.58;14.55;;;;;;;;;;5023073;28;20037;-72
2023/04/28 12:27:39;;;;;;;22.42;15.95;;;;;;;;;;5031705;28;20542;-72
2023/04/28 12:30:22;;;;;;;21.58;15.77;;;;;;;;;;5030588;28;20096;-72
2023/04/28 12:32:48;;;;;;;20.10;14.63;;;;;;;;;;4995394;28;20054;-72
2023/04/28 12:35:14;;;;;;;22.23;16.35;;;;;;;;;;5030001;28;20096;-72
2023/04/28 12:37:43;;;;;;;25.05;16.95;;;;;;;;;;5031675;28;20120;-72
2023/04/28 12:40:10;;;;;;;22.55;16.33;;;;;;;;;;5011744;28;20569;-73
2023/04/28 12:42:36;;;;;;;22.85;16.70;;;;;;;;;;5014594;28;20136;-73
2023/04/28 12:45:02;;;;;;;24.00;16.08;;;;;;;;;;5002925;28;20045;-74
2023/04/28 12:47:28;;;;;;;21.20;16.40;;;;;;;;;;5011443;28;20046;-74
2023/04/28 12:49:54;;;;;;;23.35;16.55;;;;;;;;;;5047131;28;20041;-74
2023/04/28 12:52:21;;;;;;;24.10;16.42;;;;;;;;;;5034392;28;20056;-74
2023/04/28 12:54:47;;;;;;;23.17;15.48;;;;;;;;;;5046410;28;20072;-74
2023/04/28 12:57:13;;;;;;;23.55;16.02;;;;;;;;;;5048026;28;20099;-76
2023/04/28 12:59:40;;;;;;;23.80;15.85;;;;;;;;;;5044224;28;20043;-76
2023/04/28 13:02:06;;;;;;;22.83;17.27;;;;;;;;;;5032052;28;20124;-76
2023/04/28 13:04:32;;;;;;;26.73;18.23;;;;;;;;;;5044477;28;20045;-76
2023/04/28 13:06:58;;;;;;;24.15;17.02;;;;;;;;;;5032532;28;20046;-74
2023/04/28 13:09:26;;;;;;;24.42;17.25;;;;;;;;;;5039755;28;20048;-74
2023/04/28 13:11:54;;;;;;;26.92;19.00;;;;;;;;;;5052333;28;20091;-74
2023/04/28 13:14:21;;;;;;;24.00;17.30;;;;;;;;;;5033057;28;20438;-73
2023/04/28 13:16:47;;;;;;;28.95;18.55;;;;;;;;;;5045478;28;20056;-70
2023/04/28 13:19:13;;;;;;;29.15;18.70;;;;;;;;;;5033095;28;20162;-71
2023/04/28 13:21:41;;;;;;;29.05;18.60;;;;;;;;;;5046722;28;20041;-71
2023/04/28 13:24:07;;;;;;;27.33;19.10;;;;;;;;;;5040539;28;20043;-71
2023/04/28 13:26:33;;;;;;;30.45;19.42;;;;;;;;;;5053042;28;20143;-71
2023/04/28 13:29:01;;;;;;;29.60;20.08;;;;;;;;;;5044078;28;20479;-75
2023/04/28 13:31:28;;;;;;;25.52;18.35;;;;;;;;;;5051226;28;20422;-71
2023/04/28 13:33:54;;;;;;;24.92;19.23;;;;;;;;;;5036146;28;20119;-71
2023/04/28 13:36:20;;;;;;;23.90;17.85;;;;;;;;;;5051101;28;20126;-71
2023/04/28 13:38:47;;;;;;;24.70;17.65;;;;;;;;;;5052447;28;20554;-71
2023/04/28 13:41:14;;;;;;;26.75;18.75;;;;;;;;;;5049876;28;20052;-71
2023/04/28 13:43:41;;;;;;;25.92;19.27;;;;;;;;;;5049740;28;20041;-71
2023/04/28 13:46:07;;;;;;;28.42;20.98;;;;;;;;;;5052811;28;20040;-72
2023/04/28 13:48:36;;;;;;;28.73;19.17;;;;;;;;;;5038918;28;20061;-72
2023/04/28 13:51:03;;;;;;;27.63;19.40;;;;;;;;;;5038467;28;20049;-71
2023/04/28 13:53:29;;;;;;;29.63;20.05;;;;;;;;;;5050460;28;20056;-71
2023/04/28 13:55:56;;;;;;;27.45;19.98;;;;;;;;;;5045408;28;20120;-72
2023/04/28 13:58:29;;;;;;;31.48;20.30;;;;;;;;;;5032973;28;20088;-71
2023/04/28 14:00:55;;;;;;;30.92;20.15;;;;;;;;;;5048897;28;20036;-71
2023/04/28 14:03:22;;;;;;;27.67;19.45;;;;;;;;;;5040126;28;20076;-71
2023/04/28 14:05:49;;;;;;;26.40;19.52;;;;;;;;;;5049303;28;20052;-71
2023/04/28 14:08:16;;;;;;;26.52;19.52;;;;;;;;;;5032490;28;20048;-71
2023/04/28 14:10:42;;;;;;;27.48;19.00;;;;;;;;;;5068405;28;20082;-71
2023/04/28 14:13:08;;;;;;;28.85;19.60;;;;;;;;;;5060280;28;20045;-71
2023/04/28 14:15:34;;;;;;;29.50;19.55;;;;;;;;;;5069179;28;20482;-71
2023/04/28 14:18:00;;;;;;;26.88;19.40;;;;;;;;;;5074397;28;20119;-72
2023/04/28 14:20:27;;;;;;;28.42;20.02;;;;;;;;;;5071918;28;20037;-72
2023/04/28 14:22:53;;;;;;;27.20;20.83;;;;;;;;;;5070587;28;20049;-71
2023/04/28 14:25:19;;;;;;;27.80;20.92;;;;;;;;;;5073755;28;20450;-72